KLM9E EFHK-LFPG
Flight info
| Callsign | KLM9E |
|---|---|
| Flight time | 2h 36m |
| Altitude | 36000 |
| Route | NUNTO PISOX REKDO GOTAL VIBAR VEPIP AMSUR NAROL DOBEL ALS DEMIR IZZEX WANZA OGFON AMCUB KUBAT EEL SILQI LILSI PAM LEKKO LARAS KUDAD WOODY AMMOF NIK BARTU LERVO NILEM MOPIL XERAM VAKOS ENORI DEVIM LORNI |
| Aircraft | A339/H-VGDW/C |
Departure
| Time | 2026-04-25 16:49 |
|---|---|
| Airport | Helsinki Vantaa Airport (EFHK) |
Arrival
| Time | 2026-04-25 19:26 |
|---|---|
| Airport | Charles de Gaulle International Airport (LFPG) |
| Time | Latitude | Longitude | Altitude | Speed | Heading |
|---|---|---|---|---|---|
| 2026-04-25 16:08 | 60.31727 | 24.96139 | 166 ft | 0 kts | 136° |
| 2026-04-25 16:36 | 60.31730 | 24.96132 | 166 ft | 2 kts | 135° |
| 2026-04-25 16:36 | 60.31748 | 24.96090 | 166 ft | 2 kts | 127° |
| 2026-04-25 16:36 | 60.31758 | 24.96063 | 166 ft | 2 kts | 117° |
| 2026-04-25 16:37 | 60.31764 | 24.96032 | 166 ft | 2 kts | 96° |
| 2026-04-25 16:37 | 60.31764 | 24.95998 | 166 ft | 2 kts | 63° |
| 2026-04-25 16:37 | 60.31756 | 24.95974 | 166 ft | 1 kts | 47° |
| 2026-04-25 16:37 | 60.31754 | 24.95971 | 166 ft | 0 kts | 47° |
| 2026-04-25 16:40 | 60.31759 | 24.95981 | 166 ft | 6 kts | 47° |
| 2026-04-25 16:41 | 60.31802 | 24.96078 | 166 ft | 10 kts | 47° |
| 2026-04-25 16:41 | 60.31831 | 24.96128 | 166 ft | 7 kts | 30° |
| 2026-04-25 16:41 | 60.32009 | 24.96352 | 167 ft | 18 kts | 47° |
| 2026-04-25 16:42 | 60.32091 | 24.96532 | 167 ft | 17 kts | 47° |
| 2026-04-25 16:42 | 60.32172 | 24.96711 | 166 ft | 17 kts | 46° |
| 2026-04-25 16:42 | 60.32232 | 24.96845 | 166 ft | 10 kts | 43° |
| 2026-04-25 16:42 | 60.32291 | 24.96856 | 166 ft | 8 kts | 344° |
| 2026-04-25 16:43 | 60.32341 | 24.96811 | 166 ft | 6 kts | 334° |
| 2026-04-25 16:43 | 60.32342 | 24.96810 | 166 ft | 0 kts | 334° |
| 2026-04-25 16:43 | 60.32349 | 24.96803 | 166 ft | 8 kts | 334° |
| 2026-04-25 16:43 | 60.32421 | 24.96730 | 167 ft | 16 kts | 332° |
| 2026-04-25 16:44 | 60.32471 | 24.96559 | 166 ft | 17 kts | 284° |
| 2026-04-25 16:44 | 60.32539 | 24.96392 | 167 ft | 18 kts | 327° |
| 2026-04-25 16:44 | 60.32651 | 24.96260 | 169 ft | 17 kts | 329° |
| 2026-04-25 16:44 | 60.32750 | 24.96145 | 171 ft | 16 kts | 329° |
| 2026-04-25 16:45 | 60.32839 | 24.96040 | 173 ft | 14 kts | 329° |
| 2026-04-25 16:45 | 60.32927 | 24.95938 | 175 ft | 16 kts | 329° |
| 2026-04-25 16:45 | 60.33028 | 24.95820 | 176 ft | 18 kts | 330° |
| 2026-04-25 16:45 | 60.33129 | 24.95658 | 177 ft | 19 kts | 317° |
| 2026-04-25 16:46 | 60.33200 | 24.95459 | 180 ft | 15 kts | 275° |
| 2026-04-25 16:46 | 60.33159 | 24.95297 | 183 ft | 14 kts | 230° |
| 2026-04-25 16:46 | 60.33116 | 24.95140 | 188 ft | 13 kts | 257° |
| 2026-04-25 16:46 | 60.33112 | 24.95066 | 201 ft | 17 kts | 268° |
| 2026-04-25 16:47 | 60.33117 | 24.94738 | 190 ft | 12 kts | 273° |
| 2026-04-25 16:47 | 60.33121 | 24.94529 | 193 ft | 15 kts | 271° |
| 2026-04-25 16:47 | 60.33096 | 24.94348 | 202 ft | 13 kts | 234° |
| 2026-04-25 16:47 | 60.33064 | 24.94275 | 204 ft | 0 kts | 227° |
| 2026-04-25 16:48 | 60.33023 | 24.94184 | 195 ft | 34 kts | 228° |
| 2026-04-25 16:49 | 60.32689 | 24.93445 | 181 ft | 105 kts | 228° |
| 2026-04-25 16:49 | 60.32065 | 24.92073 | 166 ft | 160 kts | 228° |
| 2026-04-25 16:49 | 60.31207 | 24.90241 | 358 ft | 190 kts | 226° |
| 2026-04-25 16:49 | 60.30224 | 24.88435 | 822 ft | 193 kts | 226° |
| 2026-04-25 16:50 | 60.29355 | 24.86333 | 1435 ft | 199 kts | 250° |
| 2026-04-25 16:50 | 60.29050 | 24.83565 | 2063 ft | 210 kts | 269° |
| 2026-04-25 16:50 | 60.28853 | 24.80537 | 2833 ft | 217 kts | 270° |
| 2026-04-25 16:50 | 60.28853 | 24.77505 | 3714 ft | 216 kts | 275° |
| 2026-04-25 16:51 | 60.28802 | 24.74506 | 4382 ft | 215 kts | 267° |
| 2026-04-25 16:51 | 60.28459 | 24.71547 | 5210 ft | 220 kts | 257° |
| 2026-04-25 16:51 | 60.27978 | 24.68520 | 5796 ft | 232 kts | 257° |
| 2026-04-25 16:51 | 60.27809 | 24.67461 | 5986 ft | 235 kts | 257° |
| 2026-04-25 16:52 | 60.27032 | 24.62239 | 7201 ft | 236 kts | 259° |
| 2026-04-25 16:52 | 60.26543 | 24.59059 | 7899 ft | 239 kts | 257° |
| 2026-04-25 16:52 | 60.25985 | 24.55878 | 8547 ft | 242 kts | 256° |
| 2026-04-25 16:52 | 60.25365 | 24.52703 | 9206 ft | 246 kts | 254° |
| 2026-04-25 16:53 | 60.23902 | 24.46361 | 10355 ft | 252 kts | 251° |
| 2026-04-25 16:53 | 60.23116 | 24.43241 | 10934 ft | 255 kts | 250° |
| 2026-04-25 16:53 | 60.22292 | 24.40064 | 11511 ft | 257 kts | 250° |
| 2026-04-25 16:54 | 60.21448 | 24.36868 | 12000 ft | 263 kts | 249° |
| 2026-04-25 16:54 | 60.20564 | 24.33521 | 12270 ft | 278 kts | 249° |
| 2026-04-25 16:54 | 60.19631 | 24.30016 | 12540 ft | 291 kts | 249° |
| 2026-04-25 16:54 | 60.18654 | 24.26379 | 12987 ft | 298 kts | 248° |
| 2026-04-25 16:55 | 60.17659 | 24.22715 | 13522 ft | 300 kts | 248° |
| 2026-04-25 16:55 | 60.16651 | 24.19033 | 14053 ft | 301 kts | 248° |
| 2026-04-25 16:55 | 60.15634 | 24.15336 | 14553 ft | 303 kts | 248° |
| 2026-04-25 16:55 | 60.14608 | 24.11613 | 15071 ft | 305 kts | 248° |
| 2026-04-25 16:56 | 60.13577 | 24.07884 | 15594 ft | 306 kts | 248° |
| 2026-04-25 16:56 | 60.12537 | 24.04128 | 16099 ft | 308 kts | 248° |
| 2026-04-25 16:56 | 60.11493 | 24.00368 | 16606 ft | 310 kts | 248° |
| 2026-04-25 16:56 | 60.10440 | 23.96592 | 17110 ft | 311 kts | 248° |
| 2026-04-25 16:57 | 60.09407 | 23.92774 | 17618 ft | 312 kts | 249° |
| 2026-04-25 16:57 | 60.09073 | 23.91517 | 17766 ft | 313 kts | 249° |
| 2026-04-25 16:57 | 60.07370 | 23.85030 | 18466 ft | 316 kts | 250° |
| 2026-04-25 16:57 | 60.06350 | 23.81119 | 18879 ft | 318 kts | 250° |
| 2026-04-25 16:58 | 60.05320 | 23.77174 | 19280 ft | 320 kts | 249° |
| 2026-04-25 16:58 | 60.04301 | 23.73279 | 19701 ft | 322 kts | 249° |
| 2026-04-25 16:58 | 60.03244 | 23.69252 | 20103 ft | 324 kts | 249° |
| 2026-04-25 16:58 | 60.02201 | 23.65287 | 20519 ft | 326 kts | 249° |
| 2026-04-25 16:59 | 60.01139 | 23.61261 | 20920 ft | 328 kts | 249° |
| 2026-04-25 16:59 | 60.00070 | 23.57219 | 21340 ft | 330 kts | 249° |
| 2026-04-25 16:59 | 59.98993 | 23.53158 | 21719 ft | 332 kts | 249° |
| 2026-04-25 16:59 | 59.97906 | 23.49071 | 22113 ft | 334 kts | 249° |
| 2026-04-25 17:00 | 59.96813 | 23.44963 | 22517 ft | 336 kts | 249° |
| 2026-04-25 17:00 | 59.95712 | 23.40839 | 22911 ft | 338 kts | 248° |
| 2026-04-25 17:00 | 59.94606 | 23.36691 | 23229 ft | 339 kts | 249° |
| 2026-04-25 17:00 | 59.93495 | 23.32519 | 23555 ft | 341 kts | 248° |
| 2026-04-25 17:01 | 59.92368 | 23.28327 | 23893 ft | 343 kts | 248° |
| 2026-04-25 17:01 | 59.91251 | 23.24186 | 24206 ft | 345 kts | 248° |
| 2026-04-25 17:01 | 59.90111 | 23.19966 | 24553 ft | 347 kts | 248° |
| 2026-04-25 17:01 | 59.88964 | 23.15723 | 24881 ft | 349 kts | 247° |
| 2026-04-25 17:02 | 59.87807 | 23.11449 | 25203 ft | 351 kts | 247° |
| 2026-04-25 17:02 | 59.86645 | 23.07166 | 25525 ft | 353 kts | 247° |
| 2026-04-25 17:02 | 59.85472 | 23.02852 | 25874 ft | 355 kts | 247° |
| 2026-04-25 17:02 | 59.85077 | 23.01399 | 25974 ft | 355 kts | 246° |
| 2026-04-25 17:03 | 59.83105 | 22.94180 | 26514 ft | 359 kts | 246° |
| 2026-04-25 17:03 | 59.81903 | 22.89796 | 26828 ft | 361 kts | 246° |
| 2026-04-25 17:03 | 59.80696 | 22.85411 | 27173 ft | 363 kts | 246° |
| 2026-04-25 17:03 | 59.79479 | 22.80996 | 27480 ft | 365 kts | 245° |
| 2026-04-25 17:04 | 59.78261 | 22.76546 | 27807 ft | 367 kts | 245° |
| 2026-04-25 17:04 | 59.77057 | 22.72128 | 28122 ft | 369 kts | 245° |
| 2026-04-25 17:04 | 59.75833 | 22.67638 | 28461 ft | 371 kts | 245° |
| 2026-04-25 17:04 | 59.74599 | 22.63124 | 28767 ft | 373 kts | 245° |
| 2026-04-25 17:05 | 59.73354 | 22.58588 | 29072 ft | 375 kts | 245° |
| 2026-04-25 17:05 | 59.70834 | 22.49449 | 29699 ft | 380 kts | 244° |
| 2026-04-25 17:05 | 59.69560 | 22.44852 | 29964 ft | 382 kts | 244° |
| 2026-04-25 17:06 | 59.68278 | 22.40244 | 30234 ft | 383 kts | 244° |
| 2026-04-25 17:06 | 59.67420 | 22.37167 | 30419 ft | 385 kts | 244° |
| 2026-04-25 17:06 | 59.66122 | 22.32519 | 30706 ft | 386 kts | 243° |
| 2026-04-25 17:06 | 59.64819 | 22.27871 | 30966 ft | 388 kts | 243° |
| 2026-04-25 17:07 | 59.63504 | 22.23190 | 31238 ft | 390 kts | 243° |
| 2026-04-25 17:07 | 59.62179 | 22.18485 | 31508 ft | 392 kts | 243° |
| 2026-04-25 17:07 | 59.60847 | 22.13764 | 31803 ft | 393 kts | 243° |
| 2026-04-25 17:07 | 59.59522 | 22.09080 | 32051 ft | 395 kts | 243° |
| 2026-04-25 17:08 | 59.58173 | 22.04321 | 32309 ft | 397 kts | 243° |
| 2026-04-25 17:08 | 59.56819 | 21.99557 | 32580 ft | 399 kts | 243° |
| 2026-04-25 17:08 | 59.55454 | 21.94764 | 32861 ft | 401 kts | 243° |
| 2026-04-25 17:08 | 59.54086 | 21.89971 | 33105 ft | 403 kts | 243° |
| 2026-04-25 17:09 | 59.52705 | 21.85140 | 33361 ft | 405 kts | 243° |
| 2026-04-25 17:09 | 59.51320 | 21.80306 | 33609 ft | 406 kts | 242° |
| 2026-04-25 17:09 | 59.49924 | 21.75449 | 33822 ft | 408 kts | 242° |
| 2026-04-25 17:09 | 59.48513 | 21.70557 | 34026 ft | 411 kts | 242° |
| 2026-04-25 17:10 | 59.47101 | 21.65679 | 34217 ft | 412 kts | 242° |
| 2026-04-25 17:10 | 59.45659 | 21.60847 | 34407 ft | 415 kts | 240° |
| 2026-04-25 17:10 | 59.44085 | 21.56068 | 34602 ft | 418 kts | 238° |
| 2026-04-25 17:10 | 59.42454 | 21.51332 | 34808 ft | 420 kts | 238° |
| 2026-04-25 17:11 | 59.40787 | 21.46594 | 35002 ft | 422 kts | 237° |
| 2026-04-25 17:11 | 59.39096 | 21.41852 | 35187 ft | 424 kts | 237° |
| 2026-04-25 17:11 | 59.37393 | 21.37115 | 35395 ft | 427 kts | 237° |
| 2026-04-25 17:11 | 59.35667 | 21.32345 | 35494 ft | 431 kts | 237° |
| 2026-04-25 17:12 | 59.32134 | 21.22640 | 35561 ft | 443 kts | 237° |
| 2026-04-25 17:12 | 59.28487 | 21.12690 | 35588 ft | 456 kts | 236° |
| 2026-04-25 17:13 | 59.25369 | 21.04228 | 35587 ft | 466 kts | 236° |
| 2026-04-25 17:13 | 59.20871 | 20.92090 | 35600 ft | 478 kts | 236° |
| 2026-04-25 17:14 | 59.17115 | 20.81272 | 35605 ft | 481 kts | 240° |
| 2026-04-25 17:14 | 59.13702 | 20.70340 | 35613 ft | 469 kts | 241° |
| 2026-04-25 17:15 | 59.10329 | 20.59525 | 35621 ft | 468 kts | 241° |
| 2026-04-25 17:15 | 59.06560 | 20.49094 | 35628 ft | 474 kts | 234° |
| 2026-04-25 17:16 | 59.02450 | 20.39075 | 35632 ft | 474 kts | 233° |
| 2026-04-25 17:16 | 58.98304 | 20.29160 | 35641 ft | 473 kts | 233° |
| 2026-04-25 17:17 | 58.94144 | 20.19275 | 35645 ft | 474 kts | 233° |
| 2026-04-25 17:17 | 58.90016 | 20.09283 | 35653 ft | 474 kts | 235° |
| 2026-04-25 17:18 | 58.86085 | 19.99113 | 35653 ft | 473 kts | 236° |
| 2026-04-25 17:18 | 58.82160 | 19.88980 | 35663 ft | 473 kts | 236° |
| 2026-04-25 17:19 | 58.78199 | 19.78817 | 35666 ft | 473 kts | 236° |
| 2026-04-25 17:19 | 58.74990 | 19.67862 | 35673 ft | 471 kts | 242° |
| 2026-04-25 17:20 | 58.71535 | 19.57115 | 35671 ft | 472 kts | 240° |
| 2026-04-25 17:20 | 58.68017 | 19.46490 | 35680 ft | 466 kts | 240° |
| 2026-04-25 17:21 | 58.64548 | 19.36064 | 35680 ft | 462 kts | 240° |
| 2026-04-25 17:21 | 58.61075 | 19.25617 | 35687 ft | 466 kts | 240° |
| 2026-04-25 17:22 | 58.58174 | 19.16892 | 35685 ft | 466 kts | 240° |
| 2026-04-25 17:22 | 58.54114 | 19.04698 | 35694 ft | 464 kts | 240° |
| 2026-04-25 17:23 | 58.50637 | 18.94270 | 35690 ft | 465 kts | 240° |
| 2026-04-25 17:23 | 58.47145 | 18.83826 | 35700 ft | 466 kts | 240° |
| 2026-04-25 17:24 | 58.43654 | 18.73414 | 35699 ft | 465 kts | 240° |
| 2026-04-25 17:24 | 58.40179 | 18.63089 | 35704 ft | 465 kts | 240° |
| 2026-04-25 17:25 | 58.36675 | 18.52715 | 35701 ft | 466 kts | 240° |
| 2026-04-25 17:25 | 58.33153 | 18.42328 | 35710 ft | 466 kts | 240° |
| 2026-04-25 17:26 | 58.29633 | 18.31990 | 35705 ft | 465 kts | 240° |
| 2026-04-25 17:26 | 58.26107 | 18.21678 | 35707 ft | 465 kts | 240° |
| 2026-04-25 17:27 | 58.22568 | 18.11369 | 35705 ft | 466 kts | 240° |
| 2026-04-25 17:27 | 58.20222 | 18.04557 | 35718 ft | 466 kts | 240° |
| 2026-04-25 17:28 | 58.15468 | 17.90817 | 35715 ft | 465 kts | 240° |
| 2026-04-25 17:28 | 58.11927 | 17.80634 | 35722 ft | 466 kts | 240° |
| 2026-04-25 17:29 | 58.08351 | 17.70390 | 35718 ft | 467 kts | 240° |
| 2026-04-25 17:29 | 58.04760 | 17.60150 | 35724 ft | 466 kts | 240° |
| 2026-04-25 17:30 | 58.01174 | 17.49970 | 35720 ft | 466 kts | 240° |
| 2026-04-25 17:30 | 57.97576 | 17.39796 | 35729 ft | 467 kts | 240° |
| 2026-04-25 17:31 | 57.93984 | 17.29680 | 35728 ft | 467 kts | 240° |
| 2026-04-25 17:31 | 57.90364 | 17.19530 | 35732 ft | 466 kts | 240° |
| 2026-04-25 17:32 | 57.86735 | 17.09415 | 36000 ft | 470 kts | 240° |
| 2026-04-25 17:32 | 57.84890 | 17.04292 | 35853 ft | 475 kts | 240° |
| 2026-04-25 17:32 | 57.83044 | 16.99165 | 35789 ft | 473 kts | 240° |
| 2026-04-25 17:33 | 57.79370 | 16.89001 | 35744 ft | 469 kts | 240° |
| 2026-04-25 17:33 | 57.75698 | 16.78871 | 35734 ft | 471 kts | 240° |
| 2026-04-25 17:34 | 57.71999 | 16.68707 | 35733 ft | 473 kts | 240° |
| 2026-04-25 17:34 | 57.68292 | 16.58569 | 35733 ft | 471 kts | 240° |
| 2026-04-25 17:35 | 57.64583 | 16.48470 | 35731 ft | 471 kts | 240° |
| 2026-04-25 17:35 | 57.60863 | 16.38384 | 35726 ft | 472 kts | 240° |
| 2026-04-25 17:36 | 57.57125 | 16.28289 | 35728 ft | 472 kts | 240° |
| 2026-04-25 17:36 | 57.53391 | 16.18255 | 35725 ft | 471 kts | 240° |
| 2026-04-25 17:37 | 57.49670 | 16.08294 | 35725 ft | 471 kts | 240° |
| 2026-04-25 17:37 | 57.45916 | 15.98286 | 35720 ft | 472 kts | 240° |
| 2026-04-25 17:38 | 57.43421 | 15.91658 | 35721 ft | 471 kts | 240° |
| 2026-04-25 17:38 | 57.38389 | 15.78343 | 35723 ft | 471 kts | 240° |
| 2026-04-25 17:39 | 57.34611 | 15.68395 | 35717 ft | 472 kts | 240° |
| 2026-04-25 17:39 | 57.30829 | 15.58476 | 35726 ft | 472 kts | 240° |
| 2026-04-25 17:40 | 57.27054 | 15.48663 | 35721 ft | 471 kts | 240° |
| 2026-04-25 17:40 | 57.23239 | 15.38820 | 35721 ft | 471 kts | 240° |
| 2026-04-25 17:41 | 57.19417 | 15.28996 | 35720 ft | 472 kts | 240° |
| 2026-04-25 17:41 | 57.15585 | 15.19190 | 35723 ft | 471 kts | 240° |
| 2026-04-25 17:42 | 57.11745 | 15.09397 | 35730 ft | 471 kts | 240° |
| 2026-04-25 17:42 | 57.07905 | 14.99639 | 35734 ft | 471 kts | 240° |
| 2026-04-25 17:43 | 57.04056 | 14.89894 | 35739 ft | 471 kts | 240° |
| 2026-04-25 17:43 | 57.00205 | 14.80193 | 35739 ft | 465 kts | 240° |
| 2026-04-25 17:44 | 56.96399 | 14.70646 | 35741 ft | 463 kts | 240° |
| 2026-04-25 17:44 | 56.92585 | 14.61096 | 35742 ft | 466 kts | 240° |
| 2026-04-25 17:45 | 56.90041 | 14.54745 | 35743 ft | 467 kts | 240° |
| 2026-04-25 17:45 | 56.84924 | 14.42035 | 35743 ft | 465 kts | 240° |
| 2026-04-25 17:46 | 56.81072 | 14.32507 | 35750 ft | 466 kts | 240° |
| 2026-04-25 17:46 | 56.77207 | 14.22985 | 35764 ft | 466 kts | 240° |
| 2026-04-25 17:47 | 56.73344 | 14.13509 | 35774 ft | 466 kts | 240° |
| 2026-04-25 17:47 | 56.69492 | 14.04098 | 35789 ft | 466 kts | 240° |
| 2026-04-25 17:48 | 56.63662 | 13.89915 | 35794 ft | 466 kts | 240° |
| 2026-04-25 17:49 | 56.59774 | 13.80506 | 35794 ft | 466 kts | 240° |
| 2026-04-25 17:49 | 56.55867 | 13.71083 | 35804 ft | 466 kts | 240° |
| 2026-04-25 17:50 | 56.51982 | 13.61751 | 35809 ft | 466 kts | 240° |
| 2026-04-25 17:50 | 56.48063 | 13.52377 | 35815 ft | 466 kts | 240° |
| 2026-04-25 17:51 | 56.44806 | 13.44615 | 35816 ft | 466 kts | 240° |
| 2026-04-25 17:51 | 56.40882 | 13.35297 | 35822 ft | 466 kts | 240° |
| 2026-04-25 17:52 | 56.36949 | 13.25992 | 35823 ft | 466 kts | 240° |
| 2026-04-25 17:52 | 56.33006 | 13.16695 | 35835 ft | 466 kts | 240° |
| 2026-04-25 17:53 | 56.29060 | 13.07438 | 35824 ft | 466 kts | 240° |
| 2026-04-25 17:53 | 56.25105 | 12.98188 | 35820 ft | 465 kts | 240° |
| 2026-04-25 17:54 | 56.21174 | 12.89028 | 35818 ft | 465 kts | 240° |
| 2026-04-25 17:54 | 56.17208 | 12.79820 | 35820 ft | 466 kts | 240° |
| 2026-04-25 17:55 | 56.13235 | 12.70636 | 35826 ft | 465 kts | 241° |
| 2026-04-25 17:55 | 56.09261 | 12.61487 | 35841 ft | 465 kts | 241° |
| 2026-04-25 17:56 | 56.05278 | 12.52347 | 35858 ft | 465 kts | 241° |
| 2026-04-25 17:56 | 56.01305 | 12.43266 | 35866 ft | 465 kts | 241° |
| 2026-04-25 17:57 | 55.97311 | 12.34171 | 35868 ft | 465 kts | 241° |
| 2026-04-25 17:57 | 55.93317 | 12.25112 | 35874 ft | 464 kts | 242° |
| 2026-04-25 17:58 | 55.89316 | 12.16064 | 35884 ft | 465 kts | 242° |
| 2026-04-25 17:58 | 55.85299 | 12.07017 | 35881 ft | 465 kts | 242° |
| 2026-04-25 17:59 | 55.81285 | 11.98010 | 35879 ft | 464 kts | 242° |
| 2026-04-25 17:59 | 55.77270 | 11.89034 | 35886 ft | 464 kts | 242° |
| 2026-04-25 18:00 | 55.73250 | 11.80074 | 35883 ft | 464 kts | 242° |
| 2026-04-25 18:00 | 55.69233 | 11.71157 | 35890 ft | 462 kts | 242° |
| 2026-04-25 18:01 | 55.65209 | 11.62256 | 35909 ft | 462 kts | 242° |
| 2026-04-25 18:01 | 55.61213 | 11.53442 | 35917 ft | 461 kts | 242° |
| 2026-04-25 18:02 | 55.57199 | 11.44619 | 35924 ft | 461 kts | 242° |
| 2026-04-25 18:02 | 55.53166 | 11.35789 | 35928 ft | 461 kts | 242° |
| 2026-04-25 18:03 | 55.49135 | 11.26996 | 35932 ft | 460 kts | 242° |
| 2026-04-25 18:03 | 55.45112 | 11.18250 | 35938 ft | 459 kts | 242° |
| 2026-04-25 18:04 | 55.41107 | 11.09568 | 35948 ft | 460 kts | 242° |
| 2026-04-25 18:04 | 55.37055 | 11.00813 | 35946 ft | 460 kts | 242° |
| 2026-04-25 18:05 | 55.33010 | 10.92108 | 35949 ft | 460 kts | 242° |
| 2026-04-25 18:05 | 55.28951 | 10.83405 | 35964 ft | 461 kts | 242° |
| 2026-04-25 18:06 | 55.24881 | 10.74711 | 35963 ft | 461 kts | 242° |
| 2026-04-25 18:06 | 55.20802 | 10.66027 | 35967 ft | 462 kts | 242° |
| 2026-04-25 18:07 | 55.16707 | 10.57344 | 35971 ft | 462 kts | 241° |
| 2026-04-25 18:07 | 55.12603 | 10.48677 | 35978 ft | 463 kts | 241° |
| 2026-04-25 18:08 | 55.08491 | 10.40027 | 35999 ft | 464 kts | 241° |
| 2026-04-25 18:08 | 55.04351 | 10.31345 | 35998 ft | 464 kts | 241° |
| 2026-04-25 18:09 | 55.00211 | 10.22697 | 36000 ft | 464 kts | 240° |
| 2026-04-25 18:09 | 54.96083 | 10.14102 | 36010 ft | 465 kts | 240° |
| 2026-04-25 18:10 | 54.91897 | 10.05413 | 36014 ft | 466 kts | 240° |
| 2026-04-25 18:10 | 54.87747 | 9.96830 | 36014 ft | 466 kts | 240° |
| 2026-04-25 18:11 | 54.83586 | 9.88208 | 36011 ft | 465 kts | 240° |
| 2026-04-25 18:11 | 54.79448 | 9.79567 | 36015 ft | 466 kts | 240° |
| 2026-04-25 18:12 | 54.75296 | 9.70900 | 36018 ft | 468 kts | 240° |
| 2026-04-25 18:12 | 54.71132 | 9.62242 | 36030 ft | 467 kts | 239° |
| 2026-04-25 18:13 | 54.66976 | 9.53635 | 36033 ft | 468 kts | 239° |
| 2026-04-25 18:13 | 54.62789 | 9.44995 | 36038 ft | 469 kts | 239° |
| 2026-04-25 18:14 | 54.56490 | 9.32064 | 36047 ft | 469 kts | 239° |
| 2026-04-25 18:14 | 54.52276 | 9.23444 | 36047 ft | 475 kts | 238° |
| 2026-04-25 18:15 | 54.47961 | 9.14627 | 36050 ft | 486 kts | 238° |
| 2026-04-25 18:15 | 54.43596 | 9.05772 | 36058 ft | 483 kts | 238° |
| 2026-04-25 18:16 | 54.39289 | 8.97092 | 36069 ft | 479 kts | 237° |
| 2026-04-25 18:17 | 54.32778 | 8.84001 | 36083 ft | 481 kts | 237° |
| 2026-04-25 18:17 | 54.28432 | 8.75304 | 36099 ft | 480 kts | 237° |
| 2026-04-25 18:18 | 54.24088 | 8.66641 | 36096 ft | 479 kts | 237° |
| 2026-04-25 18:18 | 54.19737 | 8.57993 | 36096 ft | 480 kts | 236° |
| 2026-04-25 18:19 | 54.15378 | 8.49358 | 36103 ft | 479 kts | 236° |
| 2026-04-25 18:19 | 54.11023 | 8.40765 | 36107 ft | 478 kts | 236° |
| 2026-04-25 18:20 | 54.06676 | 8.32215 | 36115 ft | 478 kts | 236° |
| 2026-04-25 18:20 | 54.02323 | 8.23684 | 36127 ft | 473 kts | 235° |
| 2026-04-25 18:21 | 53.98086 | 8.15436 | 36134 ft | 462 kts | 235° |
| 2026-04-25 18:21 | 53.93828 | 8.07136 | 36140 ft | 471 kts | 235° |
| 2026-04-25 18:22 | 53.89557 | 7.98833 | 36144 ft | 471 kts | 235° |
| 2026-04-25 18:22 | 53.85242 | 7.90489 | 36148 ft | 470 kts | 234° |
| 2026-04-25 18:23 | 53.80883 | 7.82075 | 36151 ft | 480 kts | 234° |
| 2026-04-25 18:23 | 53.76471 | 7.73588 | 36149 ft | 483 kts | 234° |
| 2026-04-25 18:24 | 53.72039 | 7.65115 | 36147 ft | 478 kts | 234° |
| 2026-04-25 18:24 | 53.67625 | 7.56703 | 36149 ft | 480 kts | 233° |
| 2026-04-25 18:25 | 53.63183 | 7.48261 | 36151 ft | 481 kts | 233° |
| 2026-04-25 18:25 | 53.58744 | 7.39857 | 36160 ft | 479 kts | 233° |
| 2026-04-25 18:26 | 53.54305 | 7.31481 | 36179 ft | 480 kts | 233° |
| 2026-04-25 18:26 | 53.49878 | 7.23155 | 36181 ft | 480 kts | 233° |
| 2026-04-25 18:27 | 53.45406 | 7.14773 | 36180 ft | 480 kts | 232° |
| 2026-04-25 18:27 | 53.40975 | 7.06498 | 36178 ft | 479 kts | 232° |
| 2026-04-25 18:28 | 53.36511 | 6.98186 | 36181 ft | 480 kts | 232° |
| 2026-04-25 18:28 | 53.32038 | 6.89887 | 36179 ft | 479 kts | 232° |
| 2026-04-25 18:29 | 53.25341 | 6.77520 | 36181 ft | 478 kts | 232° |
| 2026-04-25 18:30 | 53.16417 | 6.61133 | 36179 ft | 478 kts | 231° |
| 2026-04-25 18:30 | 53.11951 | 6.52975 | 36181 ft | 476 kts | 231° |
| 2026-04-25 18:31 | 53.07482 | 6.44839 | 36182 ft | 476 kts | 231° |
| 2026-04-25 18:31 | 53.03002 | 6.36709 | 36184 ft | 476 kts | 231° |
| 2026-04-25 18:32 | 52.98530 | 6.28620 | 36186 ft | 475 kts | 231° |
| 2026-04-25 18:32 | 52.94065 | 6.20571 | 36188 ft | 474 kts | 231° |
| 2026-04-25 18:33 | 52.89602 | 6.12549 | 36192 ft | 474 kts | 231° |
| 2026-04-25 18:33 | 52.85127 | 6.04532 | 36191 ft | 474 kts | 231° |
| 2026-04-25 18:34 | 52.81381 | 5.97842 | 36191 ft | 473 kts | 231° |
| 2026-04-25 18:34 | 52.76936 | 5.89928 | 36191 ft | 472 kts | 231° |
| 2026-04-25 18:35 | 52.72467 | 5.81943 | 36197 ft | 472 kts | 231° |
| 2026-04-25 18:35 | 52.68111 | 5.73827 | 36199 ft | 472 kts | 232° |
| 2026-04-25 18:36 | 52.63794 | 5.65679 | 36203 ft | 471 kts | 232° |
| 2026-04-25 18:36 | 52.59489 | 5.57553 | 36220 ft | 471 kts | 232° |
| 2026-04-25 18:37 | 52.55194 | 5.49484 | 36217 ft | 472 kts | 232° |
| 2026-04-25 18:37 | 52.50837 | 5.41344 | 36216 ft | 472 kts | 231° |
| 2026-04-25 18:38 | 52.46528 | 5.33327 | 36211 ft | 471 kts | 231° |
| 2026-04-25 18:38 | 52.42185 | 5.25272 | 36211 ft | 471 kts | 231° |
| 2026-04-25 18:39 | 52.37831 | 5.17224 | 36208 ft | 472 kts | 231° |
| 2026-04-25 18:39 | 52.33038 | 5.09901 | 36212 ft | 477 kts | 215° |
| 2026-04-25 18:40 | 52.27221 | 5.04545 | 36206 ft | 479 kts | 210° |
| 2026-04-25 18:40 | 52.21302 | 4.99614 | 36208 ft | 478 kts | 209° |
| 2026-04-25 18:41 | 52.15379 | 4.94853 | 36208 ft | 476 kts | 208° |
| 2026-04-25 18:41 | 52.09416 | 4.90126 | 36202 ft | 477 kts | 208° |
| 2026-04-25 18:42 | 52.04454 | 4.86211 | 36206 ft | 476 kts | 208° |
| 2026-04-25 18:42 | 51.97455 | 4.80895 | 36203 ft | 476 kts | 201° |
| 2026-04-25 18:43 | 51.91027 | 4.78119 | 36209 ft | 480 kts | 195° |
| 2026-04-25 18:43 | 51.84507 | 4.75708 | 36205 ft | 479 kts | 195° |
| 2026-04-25 18:44 | 51.78055 | 4.73347 | 36205 ft | 477 kts | 195° |
| 2026-04-25 18:44 | 51.71578 | 4.70939 | 36207 ft | 478 kts | 195° |
| 2026-04-25 18:45 | 51.65104 | 4.68489 | 36206 ft | 478 kts | 196° |
| 2026-04-25 18:45 | 51.58643 | 4.66014 | 36206 ft | 476 kts | 196° |
| 2026-04-25 18:46 | 51.52195 | 4.63520 | 36207 ft | 476 kts | 196° |
| 2026-04-25 18:46 | 51.45755 | 4.61016 | 36206 ft | 476 kts | 196° |
| 2026-04-25 18:47 | 51.39316 | 4.58504 | 36209 ft | 475 kts | 196° |
| 2026-04-25 18:47 | 51.32898 | 4.55999 | 36208 ft | 474 kts | 196° |
| 2026-04-25 18:48 | 51.26479 | 4.53493 | 36209 ft | 475 kts | 196° |
| 2026-04-25 18:48 | 51.20055 | 4.50988 | 36211 ft | 475 kts | 196° |
| 2026-04-25 18:49 | 51.13651 | 4.48494 | 36212 ft | 474 kts | 196° |
| 2026-04-25 18:49 | 51.07241 | 4.46004 | 36210 ft | 473 kts | 196° |
| 2026-04-25 18:50 | 51.00857 | 4.43528 | 36209 ft | 473 kts | 196° |
| 2026-04-25 18:50 | 50.94451 | 4.41052 | 36208 ft | 473 kts | 196° |
| 2026-04-25 18:51 | 50.89144 | 4.39004 | 36207 ft | 472 kts | 196° |
| 2026-04-25 18:51 | 50.81682 | 4.36134 | 36207 ft | 471 kts | 196° |
| 2026-04-25 18:52 | 50.75409 | 4.33733 | 36206 ft | 453 kts | 196° |
| 2026-04-25 18:52 | 50.69326 | 4.31412 | 36203 ft | 450 kts | 196° |
| 2026-04-25 18:53 | 50.63219 | 4.29075 | 36145 ft | 456 kts | 196° |
| 2026-04-25 18:53 | 50.60150 | 4.27905 | 36011 ft | 453 kts | 196° |
| 2026-04-25 18:53 | 50.57086 | 4.26738 | 35646 ft | 451 kts | 196° |
| 2026-04-25 18:54 | 50.51045 | 4.24448 | 34757 ft | 443 kts | 196° |
| 2026-04-25 18:54 | 50.48059 | 4.23319 | 34251 ft | 438 kts | 197° |
| 2026-04-25 18:54 | 50.45105 | 4.22205 | 33700 ft | 434 kts | 197° |
| 2026-04-25 18:55 | 50.42184 | 4.21106 | 33118 ft | 430 kts | 197° |
| 2026-04-25 18:55 | 50.39292 | 4.20017 | 32570 ft | 426 kts | 197° |
| 2026-04-25 18:55 | 50.36420 | 4.18938 | 32002 ft | 422 kts | 197° |
| 2026-04-25 18:55 | 50.33561 | 4.17863 | 31458 ft | 419 kts | 197° |
| 2026-04-25 18:56 | 50.30731 | 4.16800 | 30909 ft | 415 kts | 197° |
| 2026-04-25 18:56 | 50.27929 | 4.15746 | 30356 ft | 412 kts | 197° |
| 2026-04-25 18:56 | 50.25150 | 4.14694 | 29703 ft | 409 kts | 198° |
| 2026-04-25 18:56 | 50.22466 | 4.13307 | 29061 ft | 403 kts | 205° |
| 2026-04-25 18:57 | 50.19888 | 4.11664 | 28476 ft | 399 kts | 206° |
| 2026-04-25 18:57 | 50.17381 | 4.09984 | 27874 ft | 395 kts | 207° |
| 2026-04-25 18:57 | 50.14867 | 4.08274 | 27296 ft | 392 kts | 207° |
| 2026-04-25 18:57 | 50.14024 | 4.07699 | 27105 ft | 391 kts | 207° |
| 2026-04-25 18:58 | 50.09781 | 4.05373 | 26116 ft | 388 kts | 203° |
| 2026-04-25 18:58 | 50.04784 | 4.02386 | 24999 ft | 384 kts | 196° |
| 2026-04-25 18:58 | 50.02116 | 4.02145 | 24443 ft | 390 kts | 176° |
| 2026-04-25 18:59 | 49.96854 | 4.04228 | 23359 ft | 388 kts | 167° |
| 2026-04-25 18:59 | 49.91647 | 4.06052 | 22249 ft | 380 kts | 172° |
| 2026-04-25 19:00 | 49.86524 | 4.05922 | 21136 ft | 366 kts | 203° |
| 2026-04-25 19:00 | 49.84328 | 4.04011 | 20597 ft | 358 kts | 218° |
| 2026-04-25 19:01 | 49.80383 | 3.99359 | 19535 ft | 354 kts | 220° |
| 2026-04-25 19:01 | 49.78431 | 3.97036 | 19011 ft | 353 kts | 220° |
| 2026-04-25 19:01 | 49.76478 | 3.94763 | 18499 ft | 351 kts | 219° |
| 2026-04-25 19:01 | 49.74504 | 3.92538 | 17938 ft | 349 kts | 218° |
| 2026-04-25 19:02 | 49.70541 | 3.88271 | 16849 ft | 344 kts | 217° |
| 2026-04-25 19:02 | 49.68559 | 3.86215 | 16305 ft | 342 kts | 216° |
| 2026-04-25 19:02 | 49.66582 | 3.84202 | 15794 ft | 339 kts | 216° |
| 2026-04-25 19:03 | 49.63892 | 3.81509 | 15405 ft | 346 kts | 215° |
| 2026-04-25 19:03 | 49.60579 | 3.78248 | 15242 ft | 334 kts | 215° |
| 2026-04-25 19:03 | 49.58616 | 3.76335 | 15204 ft | 334 kts | 215° |
| 2026-04-25 19:04 | 49.54652 | 3.72493 | 15194 ft | 337 kts | 214° |
| 2026-04-25 19:04 | 49.52669 | 3.70578 | 15196 ft | 336 kts | 214° |
| 2026-04-25 19:05 | 49.48700 | 3.66757 | 15198 ft | 336 kts | 214° |
| 2026-04-25 19:05 | 49.44726 | 3.62943 | 15195 ft | 336 kts | 214° |
| 2026-04-25 19:05 | 49.42602 | 3.61445 | 15193 ft | 340 kts | 197° |
| 2026-04-25 19:06 | 49.40339 | 3.60422 | 15184 ft | 338 kts | 207° |
| 2026-04-25 19:06 | 49.37297 | 3.55281 | 15199 ft | 328 kts | 252° |
| 2026-04-25 19:06 | 49.36737 | 3.51952 | 15199 ft | 326 kts | 259° |
| 2026-04-25 19:07 | 49.35910 | 3.45101 | 15187 ft | 327 kts | 262° |
| 2026-04-25 19:07 | 49.35543 | 3.41664 | 15192 ft | 326 kts | 262° |
| 2026-04-25 19:08 | 49.34840 | 3.34799 | 15190 ft | 326 kts | 262° |
| 2026-04-25 19:08 | 49.34493 | 3.31359 | 15190 ft | 327 kts | 262° |
| 2026-04-25 19:09 | 49.33456 | 3.21078 | 14606 ft | 323 kts | 262° |
| 2026-04-25 19:09 | 49.33340 | 3.19936 | 14439 ft | 322 kts | 262° |
| 2026-04-25 19:09 | 49.29967 | 3.12829 | 12900 ft | 325 kts | 211° |
| 2026-04-25 19:10 | 49.28212 | 3.10710 | 12256 ft | 320 kts | 232° |
| 2026-04-25 19:10 | 49.27225 | 3.07775 | 11728 ft | 316 kts | 255° |
| 2026-04-25 19:10 | 49.26696 | 3.04514 | 11431 ft | 311 kts | 258° |
| 2026-04-25 19:10 | 49.26244 | 3.01351 | 11294 ft | 295 kts | 259° |
| 2026-04-25 19:11 | 49.25824 | 2.98357 | 11233 ft | 279 kts | 259° |
| 2026-04-25 19:11 | 49.25414 | 2.95502 | 11212 ft | 273 kts | 259° |
| 2026-04-25 19:11 | 49.24981 | 2.92652 | 11201 ft | 277 kts | 258° |
| 2026-04-25 19:11 | 49.24509 | 2.89771 | 11188 ft | 280 kts | 257° |
| 2026-04-25 19:12 | 49.24006 | 2.86891 | 11186 ft | 279 kts | 256° |
| 2026-04-25 19:12 | 49.23482 | 2.84036 | 11189 ft | 279 kts | 255° |
| 2026-04-25 19:12 | 49.22940 | 2.81188 | 11182 ft | 280 kts | 255° |
| 2026-04-25 19:12 | 49.22381 | 2.78316 | 11178 ft | 280 kts | 255° |
| 2026-04-25 19:13 | 49.21817 | 2.75469 | 11176 ft | 280 kts | 255° |
| 2026-04-25 19:13 | 49.21247 | 2.72629 | 11171 ft | 279 kts | 254° |
| 2026-04-25 19:13 | 49.20885 | 2.70838 | 11174 ft | 280 kts | 254° |
| 2026-04-25 19:13 | 49.20091 | 2.66926 | 11168 ft | 281 kts | 254° |
| 2026-04-25 19:14 | 49.19511 | 2.64079 | 11175 ft | 280 kts | 254° |
| 2026-04-25 19:14 | 49.19320 | 2.63150 | 11168 ft | 280 kts | 254° |
| 2026-04-25 19:14 | 49.18483 | 2.58376 | 10698 ft | 283 kts | 262° |
| 2026-04-25 19:14 | 49.18291 | 2.56334 | 10264 ft | 289 kts | 265° |
| 2026-04-25 19:15 | 49.18102 | 2.53278 | 9740 ft | 288 kts | 267° |
| 2026-04-25 19:15 | 49.17977 | 2.50240 | 9206 ft | 285 kts | 268° |
| 2026-04-25 19:15 | 49.17889 | 2.47220 | 8685 ft | 283 kts | 269° |
| 2026-04-25 19:15 | 49.17805 | 2.43248 | 7997 ft | 281 kts | 270° |
| 2026-04-25 19:16 | 49.17754 | 2.40255 | 7563 ft | 284 kts | 270° |
| 2026-04-25 19:16 | 49.17722 | 2.38208 | 7401 ft | 284 kts | 270° |
| 2026-04-25 19:16 | 49.17678 | 2.35260 | 7203 ft | 278 kts | 270° |
| 2026-04-25 19:16 | 49.17465 | 2.32338 | 6745 ft | 277 kts | 254° |
| 2026-04-25 19:17 | 49.16696 | 2.29654 | 6199 ft | 276 kts | 244° |
| 2026-04-25 19:17 | 49.15803 | 2.27056 | 5655 ft | 275 kts | 243° |
| 2026-04-25 19:17 | 49.14897 | 2.24500 | 5122 ft | 273 kts | 243° |
| 2026-04-25 19:17 | 49.13977 | 2.21960 | 4589 ft | 271 kts | 242° |
| 2026-04-25 19:18 | 49.13055 | 2.19451 | 4263 ft | 269 kts | 242° |
| 2026-04-25 19:18 | 49.12158 | 2.17018 | 4112 ft | 260 kts | 242° |
| 2026-04-25 19:18 | 49.11277 | 2.14637 | 4055 ft | 262 kts | 242° |
| 2026-04-25 19:18 | 49.10376 | 2.12207 | 4016 ft | 262 kts | 242° |
| 2026-04-25 19:19 | 49.09510 | 2.09883 | 4002 ft | 239 kts | 241° |
| 2026-04-25 19:19 | 49.08464 | 2.08097 | 4012 ft | 225 kts | 211° |
| 2026-04-25 19:19 | 49.06894 | 2.07449 | 4032 ft | 241 kts | 177° |
| 2026-04-25 19:19 | 49.05812 | 2.07790 | 4029 ft | 244 kts | 155° |
| 2026-04-25 19:20 | 49.04013 | 2.09843 | 4011 ft | 238 kts | 135° |
| 2026-04-25 19:20 | 49.02857 | 2.11553 | 4009 ft | 223 kts | 134° |
| 2026-04-25 19:20 | 49.01938 | 2.13362 | 4013 ft | 213 kts | 108° |
| 2026-04-25 19:20 | 49.01670 | 2.15572 | 4033 ft | 214 kts | 92° |
| 2026-04-25 19:21 | 49.01565 | 2.17836 | 4026 ft | 214 kts | 91° |
| 2026-04-25 19:21 | 49.01453 | 2.22263 | 4008 ft | 208 kts | 89° |
| 2026-04-25 19:21 | 49.01414 | 2.24495 | 3999 ft | 211 kts | 89° |
| 2026-04-25 19:22 | 49.01376 | 2.26728 | 3718 ft | 214 kts | 89° |
| 2026-04-25 19:22 | 49.01341 | 2.28971 | 3401 ft | 210 kts | 88° |
| 2026-04-25 19:22 | 49.01439 | 2.33025 | 2861 ft | 183 kts | 82° |
| 2026-04-25 19:23 | 49.01544 | 2.34978 | 2613 ft | 184 kts | 83° |
| 2026-04-25 19:23 | 49.01748 | 2.38765 | 2156 ft | 172 kts | 83° |
| 2026-04-25 19:23 | 49.01846 | 2.40566 | 1934 ft | 170 kts | 83° |
| 2026-04-25 19:24 | 49.01941 | 2.42405 | 1714 ft | 179 kts | 83° |
| 2026-04-25 19:24 | 49.02035 | 2.44292 | 1452 ft | 177 kts | 83° |
| 2026-04-25 19:24 | 49.02237 | 2.48009 | 1011 ft | 174 kts | 82° |
| 2026-04-25 19:25 | 49.02409 | 2.51285 | 585 ft | 148 kts | 82° |
| 2026-04-25 19:25 | 49.02492 | 2.52839 | 369 ft | 147 kts | 82° |
| 2026-04-25 19:25 | 49.02573 | 2.54118 | 357 ft | 88 kts | 88° |
| 2026-04-25 19:26 | 49.02590 | 2.54654 | 357 ft | 26 kts | 85° |
| 2026-04-25 19:26 | 49.02605 | 2.55029 | 362 ft | 44 kts | 92° |
| 2026-04-25 19:26 | 49.02568 | 2.55294 | 362 ft | 13 kts | 111° |
| 2026-04-25 19:26 | 49.02522 | 2.55449 | 365 ft | 10 kts | 116° |
| 2026-04-25 19:27 | 49.02506 | 2.55496 | 364 ft | 0 kts | 116° |
| 2026-04-25 19:27 | 49.02473 | 2.55574 | 362 ft | 13 kts | 135° |
| 2026-04-25 19:27 | 49.02447 | 2.55595 | 366 ft | 8 kts | 159° |
| 2026-04-25 19:28 | 49.02376 | 2.55616 | 357 ft | 13 kts | 172° |
| 2026-04-25 19:28 | 49.02280 | 2.55627 | 363 ft | 14 kts | 175° |
| 2026-04-25 19:28 | 49.02185 | 2.55640 | 364 ft | 13 kts | 175° |
| 2026-04-25 19:28 | 49.02112 | 2.55637 | 361 ft | 6 kts | 194° |
| 2026-04-25 19:29 | 49.02100 | 2.55629 | 363 ft | 0 kts | 206° |
| 2026-04-25 19:30 | 49.02088 | 2.55642 | 363 ft | 5 kts | 144° |
| 2026-04-25 19:30 | 49.02077 | 2.55739 | 364 ft | 14 kts | 88° |
| 2026-04-25 19:30 | 49.02086 | 2.55900 | 360 ft | 16 kts | 86° |
| 2026-04-25 19:30 | 49.02094 | 2.56065 | 360 ft | 16 kts | 85° |
| 2026-04-25 19:31 | 49.02100 | 2.56160 | 363 ft | 0 kts | 83° |
| 2026-04-25 19:31 | 49.02100 | 2.56179 | 363 ft | 7 kts | 91° |
| 2026-04-25 19:31 | 49.02102 | 2.56160 | 364 ft | 0 kts | 98° |
| 2026-04-25 19:32 | 49.02059 | 2.56296 | 361 ft | 13 kts | 140° |
| 2026-04-25 19:32 | 49.01977 | 2.56344 | 363 ft | 13 kts | 162° |
| 2026-04-25 19:32 | 49.01936 | 2.56436 | 363 ft | 10 kts | 96° |
| 2026-04-25 19:32 | 49.01937 | 2.56493 | 363 ft | 0 kts | 89° |